Time;durP1;ratioP1;P1;durP2;ratioP2;P2;SDS_P1;SDS_P2;PMS_P1;PMS_P2;Temp;Humidity;BMP_temperature;BMP_pressure;BME280_temperature;BME280_humidity;BME280_pressure;Samples;Min_cycle;Max_cycle;Signal;HPM_P1;HPM_P2
2023/01/02 00:01:23;;;;;;;441.02;421.52;;;21.40;80.60;;;;;;5088249;28;20196;-50
2023/01/02 00:03:50;;;;;;;351.40;337.10;;;21.40;80.70;;;;;;5087743;28;20218;-46
2023/01/02 00:06:17;;;;;;;318.00;305.67;;;21.40;80.70;;;;;;5093891;28;20192;-49
2023/01/02 00:08:44;;;;;;;354.58;340.25;;;21.40;80.70;;;;;;5089881;28;20280;-49
2023/01/02 00:11:10;;;;;;;384.75;369.00;;;21.30;80.60;;;;;;5083622;28;20199;-51
2023/01/02 00:13:37;;;;;;;596.42;563.08;;;21.30;80.60;;;;;;5087559;28;20682;-49
2023/01/02 00:16:06;;;;;;;486.02;463.17;;;21.30;80.70;;;;;;5086968;28;20195;-43
2023/01/02 00:18:33;;;;;;;408.20;390.17;;;21.30;80.80;;;;;;5083910;28;20202;-49
2023/01/02 00:21:02;;;;;;;361.65;346.83;;;21.30;80.80;;;;;;5091537;28;20207;-51
2023/01/02 00:23:30;;;;;;;383.50;367.23;;;21.20;80.70;;;;;;5088527;28;20291;-55
2023/01/02 00:25:56;;;;;;;369.65;354.55;;;21.40;81.00;;;;;;5089198;28;20253;-47
2023/01/02 00:29:14;;;;;;;364.95;349.90;;;21.20;80.90;;;;;;5087423;28;20191;-50
2023/01/02 00:32:29;;;;;;;506.65;480.70;;;21.20;80.90;;;;;;5086097;28;20206;-49
2023/01/02 00:34:57;;;;;;;494.67;470.58;;;21.10;80.90;;;;;;5085239;28;20203;-47
2023/01/02 00:37:24;;;;;;;502.88;478.13;;;21.10;81.00;;;;;;5087351;28;20213;-48
2023/01/02 00:39:51;;;;;;;493.38;469.48;;;21.10;81.00;;;;;;5089085;28;20190;-47
2023/01/02 00:42:18;;;;;;;543.38;514.60;;;21.10;81.00;;;;;;5086856;28;20545;-52
2023/01/02 00:44:44;;;;;;;556.70;525.95;;;21.10;81.10;;;;;;5091022;28;20226;-50
2023/01/02 00:47:11;;;;;;;504.98;479.95;;;21.10;81.20;;;;;;5084775;28;20201;-48
2023/01/02 00:49:38;;;;;;;525.60;499.55;;;21.10;81.20;;;;;;5091461;28;20559;-50
2023/01/02 00:52:06;;;;;;;562.55;531.47;;;21.10;81.90;;;;;;5090785;28;20487;-47
2023/01/02 00:54:32;;;;;;;547.70;518.00;;;21.00;81.10;;;;;;5087594;28;20195;-49
2023/01/02 00:56:59;;;;;;;577.38;544.78;;;21.00;81.10;;;;;;5089939;28;20197;-50
2023/01/02 00:59:26;;;;;;;635.40;595.65;;;21.00;81.20;;;;;;5089615;28;20194;-52
2023/01/02 01:01:52;;;;;;;635.42;593.22;;;21.00;81.20;;;;;;5089927;28;20197;-49
2023/01/02 01:04:19;;;;;;;618.80;581.60;;;21.00;81.20;;;;;;5086522;28;20211;-52
2023/01/02 01:06:46;;;;;;;296.85;285.48;;;21.10;81.30;;;;;;5091475;28;20201;-49
2023/01/02 01:09:14;;;;;;;356.67;342.33;;;21.00;81.20;;;;;;5083616;28;20206;-47
2023/01/02 01:11:40;;;;;;;596.58;561.42;;;21.20;81.40;;;;;;5089450;28;20210;-48
2023/01/02 01:14:07;;;;;;;279.80;268.98;;;21.00;81.20;;;;;;5088772;28;20210;-49
2023/01/02 01:16:34;;;;;;;365.90;350.65;;;21.00;82.10;;;;;;5086193;28;20205;-51
2023/01/02 01:19:00;;;;;;;601.53;565.70;;;21.00;82.10;;;;;;5087214;28;20206;-48
2023/01/02 01:21:27;;;;;;;307.55;295.42;;;20.90;81.20;;;;;;5088751;28;20212;-45
2023/01/02 01:23:55;;;;;;;274.30;263.70;;;20.90;81.30;;;;;;5089138;28;20218;-47
2023/01/02 01:26:23;;;;;;;511.70;486.10;;;21.00;81.20;;;;;;5090076;28;20198;-52
2023/01/02 01:28:52;;;;;;;598.97;558.63;;;21.00;82.00;;;;;;5086678;28;20210;-50
2023/01/02 01:31:20;;;;;;;614.33;572.58;;;21.00;81.30;;;;;;5080523;28;20214;-48
2023/01/02 01:33:47;;;;;;;570.47;537.25;;;20.90;81.10;;;;;;5084812;28;20191;-46
2023/01/02 01:36:15;;;;;;;509.50;483.70;;;20.90;81.10;;;;;;5089270;28;20198;-46
2023/01/02 01:38:42;;;;;;;538.55;507.88;;;20.90;81.20;;;;;;5086777;28;20188;-50
2023/01/02 01:41:11;;;;;;;323.40;310.40;;;20.90;81.30;;;;;;5092043;28;20204;-46
2023/01/02 01:43:42;;;;;;;592.55;553.08;;;20.90;81.10;;;;;;5087895;28;20195;-46
2023/01/02 01:46:17;;;;;;;314.10;301.42;;;20.90;81.10;;;;;;5089226;28;20193;-48
2023/01/02 01:48:45;;;;;;;282.67;271.90;;;20.90;81.00;;;;;;5084454;28;20247;-45
2023/01/02 01:51:13;;;;;;;378.38;362.08;;;20.90;81.00;;;;;;5084695;28;20199;-50
2023/01/02 01:53:41;;;;;;;365.98;350.63;;;20.90;81.10;;;;;;5079061;28;20195;-46
2023/01/02 01:56:12;;;;;;;347.75;333.65;;;20.90;81.10;;;;;;5085579;28;20209;-46
2023/01/02 01:58:43;;;;;;;420.40;401.95;;;20.90;81.00;;;;;;5088504;28;20194;-51
2023/01/02 02:01:12;;;;;;;501.02;475.92;;;20.90;80.90;;;;;;5085517;28;20195;-49
2023/01/02 02:03:41;;;;;;;593.83;559.50;;;20.90;81.00;;;;;;5082685;28;20191;-49
2023/01/02 02:06:08;;;;;;;540.13;511.08;;;20.90;81.10;;;;;;5078819;28;20362;-53
2023/01/02 02:08:41;;;;;;;544.92;514.42;;;20.90;81.10;;;;;;5086863;28;20191;-51
2023/01/02 02:11:09;;;;;;;553.30;522.28;;;20.90;81.10;;;;;;5091147;28;20447;-49
2023/01/02 02:13:36;;;;;;;573.17;541.58;;;20.90;81.00;;;;;;5085994;28;20667;-49
2023/01/02 02:16:14;;;;;;;539.88;511.52;;;20.90;81.00;;;;;;5084704;28;20194;-51
2023/01/02 02:18:54;;;;;;;594.38;553.45;;;20.90;81.70;;;;;;5085663;28;20225;-52
2023/01/02 02:21:41;;;;;;;328.38;314.98;;;20.80;80.90;;;;;;5088307;28;20686;-49
2023/01/02 02:24:42;;;;;;;312.90;300.33;;;20.90;80.90;;;;;;5082124;28;20191;-53
2023/01/02 02:27:29;;;;;;;372.58;357.00;;;20.80;80.90;;;;;;5083792;28;20190;-51
2023/01/02 02:30:08;;;;;;;392.13;375.25;;;20.80;80.90;;;;;;5084925;28;20196;-45
2023/01/02 02:32:50;;;;;;;390.60;373.80;;;20.80;80.90;;;;;;5082218;28;20190;-48
2023/01/02 02:35:29;;;;;;;417.13;398.63;;;20.80;81.00;;;;;;5082027;28;20222;-50
2023/01/02 02:38:04;;;;;;;525.30;496.58;;;20.80;81.00;;;;;;5082839;28;20198;-51
2023/01/02 02:40:52;;;;;;;581.42;546.08;;;20.80;81.00;;;;;;5087145;28;20565;-49
2023/01/02 02:43:28;;;;;;;519.58;492.58;;;20.80;80.90;;;;;;5088148;28;20208;-46
2023/01/02 02:46:04;;;;;;;487.05;462.52;;;20.80;80.90;;;;;;5080797;28;20209;-49
2023/01/02 02:48:39;;;;;;;506.38;480.10;;;20.80;80.90;;;;;;5084765;28;20198;-50
2023/01/02 02:51:10;;;;;;;475.63;453.35;;;20.80;81.00;;;;;;5088521;28;20193;-49
2023/01/02 02:53:42;;;;;;;461.90;439.45;;;20.80;81.00;;;;;;5086665;28;20192;-51
2023/01/02 02:56:11;;;;;;;510.25;483.13;;;20.80;81.00;;;;;;5084944;28;20199;-49
2023/01/02 02:58:40;;;;;;;557.95;521.65;;;20.80;81.00;;;;;;5087123;28;20207;-50
2023/01/02 03:01:15;;;;;;;256.45;246.68;;;20.70;80.90;;;;;;5084395;28;20190;-53
2023/01/02 03:03:42;;;;;;;267.17;256.88;;;20.80;81.00;;;;;;5088880;28;20198;-52
2023/01/02 03:06:23;;;;;;;248.32;238.73;;;20.80;81.00;;;;;;5087176;28;20223;-48
2023/01/02 03:09:03;;;;;;;279.15;268.20;;;20.70;81.00;;;;;;5088119;28;20684;-49
2023/01/02 03:11:39;;;;;;;300.33;288.63;;;20.70;80.90;;;;;;5087489;28;20209;-52
2023/01/02 03:14:08;;;;;;;270.02;259.45;;;20.70;80.90;;;;;;5087511;28;20198;-50
2023/01/02 03:16:39;;;;;;;302.98;290.73;;;20.70;80.80;;;;;;5083577;28;20571;-51
2023/01/02 03:19:09;;;;;;;307.27;294.92;;;20.70;80.80;;;;;;5082857;28;20213;-50
2023/01/02 03:21:39;;;;;;;335.65;322.10;;;20.70;81.00;;;;;;5087200;28;20587;-50
2023/01/02 03:24:09;;;;;;;374.52;357.75;;;20.70;80.90;;;;;;5086597;28;20688;-49
2023/01/02 03:26:37;;;;;;;437.25;416.90;;;20.70;80.90;;;;;;5085119;28;20192;-49
2023/01/02 03:29:09;;;;;;;499.70;473.88;;;20.70;80.90;;;;;;5088983;28;20186;-48
2023/01/02 03:31:41;;;;;;;537.58;508.77;;;20.70;80.90;;;;;;5083244;28;20195;-48
2023/01/02 03:34:13;;;;;;;613.30;568.25;;;20.60;80.70;;;;;;5088847;28;20201;-49
2023/01/02 03:36:42;;;;;;;647.53;597.88;;;20.70;80.90;;;;;;5082747;28;20201;-47
2023/01/02 03:39:13;;;;;;;636.17;588.40;;;20.70;80.90;;;;;;5089701;28;20647;-49
2023/01/02 03:41:44;;;;;;;629.55;579.90;;;20.70;80.90;;;;;;5089570;28;20202;-46
2023/01/02 03:44:12;;;;;;;619.08;569.35;;;20.70;80.90;;;;;;5085341;28;20194;-49
2023/01/02 03:46:45;;;;;;;625.38;573.85;;;20.70;80.90;;;;;;5083936;28;20226;-48
2023/01/02 03:49:16;;;;;;;618.92;569.38;;;20.70;80.90;;;;;;5086018;28;20201;-46
2023/01/02 03:51:43;;;;;;;563.03;531.13;;;20.70;80.80;;;;;;5092853;28;20558;-53
2023/01/02 03:54:11;;;;;;;539.67;509.42;;;20.70;80.90;;;;;;5090044;28;20210;-50
2023/01/02 03:56:45;;;;;;;530.53;501.42;;;20.70;80.80;;;;;;5092031;28;20214;-52
2023/01/02 03:59:19;;;;;;;489.63;464.77;;;20.70;80.90;;;;;;5088268;28;20562;-51
2023/01/02 04:01:51;;;;;;;542.92;512.67;;;20.70;80.90;;;;;;5086452;28;20197;-49
2023/01/02 04:04:27;;;;;;;521.90;494.27;;;20.60;80.80;;;;;;5089867;28;20198;-49
2023/01/02 04:07:00;;;;;;;533.85;504.80;;;20.70;80.90;;;;;;5085989;28;20189;-48
2023/01/02 04:09:30;;;;;;;558.95;525.97;;;20.70;80.90;;;;;;5088747;28;20202;-51
2023/01/02 04:12:02;;;;;;;598.95;558.35;;;20.70;80.90;;;;;;5087092;28;20191;-46
2023/01/02 04:14:34;;;;;;;559.47;525.28;;;20.70;80.90;;;;;;5092051;28;20654;-49
2023/01/02 04:17:06;;;;;;;539.08;509.65;;;20.80;81.00;;;;;;5086878;28;20194;-50
2023/01/02 04:19:36;;;;;;;364.67;349.17;;;20.70;80.90;;;;;;5090720;28;20585;-50
2023/01/02 04:22:07;;;;;;;367.05;351.10;;;20.60;80.80;;;;;;5089024;28;20204;-49
2023/01/02 04:24:39;;;;;;;358.55;343.35;;;20.60;80.80;;;;;;5087092;28;20199;-50
2023/01/02 04:27:10;;;;;;;397.40;380.00;;;20.60;80.80;;;;;;5092290;28;20199;-48
2023/01/02 04:29:37;;;;;;;522.47;492.00;;;20.60;80.80;;;;;;5088302;28;20205;-48
2023/01/02 04:32:14;;;;;;;566.63;528.63;;;20.60;80.80;;;;;;5087618;28;20201;-48
2023/01/02 04:34:43;;;;;;;578.40;544.60;;;20.60;80.80;;;;;;5090583;28;20219;-48
2023/01/02 04:37:10;;;;;;;556.60;525.17;;;20.60;81.60;;;;;;5087400;28;20191;-54
2023/01/02 04:39:38;;;;;;;474.63;451.92;;;20.60;80.80;;;;;;5087239;28;20566;-53
2023/01/02 04:42:05;;;;;;;523.28;495.48;;;20.60;80.80;;;;;;5093117;28;20207;-51
2023/01/02 04:44:32;;;;;;;492.70;467.95;;;20.60;80.80;;;;;;5087348;28;20206;-48
2023/01/02 04:46:58;;;;;;;543.20;512.53;;;20.60;81.50;;;;;;5087100;28;20223;-46
2023/01/02 04:49:26;;;;;;;487.58;462.52;;;20.60;80.80;;;;;;5085452;28;20203;-51
2023/01/02 04:51:53;;;;;;;479.00;455.67;;;20.60;80.80;;;;;;5087263;28;20199;-46
2023/01/02 04:54:20;;;;;;;509.30;482.45;;;20.60;80.70;;;;;;5087091;28;20665;-45
2023/01/02 04:56:46;;;;;;;442.60;421.80;;;20.60;80.70;;;;;;5092090;28;20199;-52
2023/01/02 04:59:13;;;;;;;447.25;425.85;;;20.60;80.70;;;;;;5083976;28;20205;-47
2023/01/02 05:01:40;;;;;;;457.90;436.10;;;20.60;81.00;;;;;;5082709;28;20199;-49
2023/01/02 05:04:06;;;;;;;451.23;430.10;;;20.60;80.70;;;;;;5089896;28;20191;-52
2023/01/02 05:06:35;;;;;;;447.00;426.08;;;20.70;80.30;;;;;;5089959;28;20225;-46
2023/01/02 05:09:01;;;;;;;445.00;424.35;;;20.80;79.90;;;;;;5087989;28;20202;-49
2023/01/02 05:11:28;;;;;;;424.50;404.80;;;20.90;79.80;;;;;;5090847;28;20657;-47
2023/01/02 05:13:55;;;;;;;508.42;482.67;;;21.00;79.30;;;;;;5087920;28;20203;-51
2023/01/02 05:16:21;;;;;;;446.90;426.20;;;21.20;78.70;;;;;;5084482;28;20203;-49
2023/01/02 05:18:48;;;;;;;430.23;411.30;;;21.30;78.20;;;;;;5090647;28;20582;-49
2023/01/02 05:24:02;;;;;;;409.58;391.42;;;21.50;77.30;;;;;;5089311;28;20856;-47
2023/01/02 05:26:31;;;;;;;445.15;424.80;;;21.60;77.10;;;;;;5090903;28;20722;-46
2023/01/02 05:28:59;;;;;;;462.77;440.88;;;21.70;76.70;;;;;;5089155;28;20191;-46
2023/01/02 05:31:26;;;;;;;561.15;530.20;;;21.80;76.50;;;;;;5083786;28;20219;-46
2023/01/02 05:33:53;;;;;;;577.50;546.38;;;21.80;76.40;;;;;;5082331;28;20665;-50
2023/01/02 05:36:21;;;;;;;637.65;600.33;;;21.90;76.30;;;;;;5089142;28;20198;-48
2023/01/02 05:38:48;;;;;;;659.65;616.95;;;22.00;76.00;;;;;;5088061;28;20211;-52
2023/01/02 05:41:16;;;;;;;641.58;599.33;;;22.00;75.70;;;;;;5091206;28;20558;-51
2023/01/02 05:43:43;;;;;;;676.38;626.97;;;22.00;75.70;;;;;;5089039;28;20207;-50
2023/01/02 05:46:12;;;;;;;643.97;600.78;;;22.00;75.60;;;;;;5083415;28;20211;-48
2023/01/02 05:48:39;;;;;;;668.08;618.75;;;22.00;76.50;;;;;;5088103;28;20198;-53
2023/01/02 05:51:07;;;;;;;696.28;645.78;;;22.00;75.80;;;;;;5088597;28;20217;-52
2023/01/02 05:53:34;;;;;;;666.30;617.80;;;22.00;76.00;;;;;;5088608;28;20208;-49
2023/01/02 05:56:06;;;;;;;638.95;597.53;;;21.90;76.00;;;;;;5088261;28;20197;-49
2023/01/02 05:58:36;;;;;;;660.58;612.85;;;21.90;76.20;;;;;;5086624;28;20200;-48
2023/01/02 06:01:04;;;;;;;669.85;620.65;;;21.80;76.00;;;;;;5086329;28;20202;-51
2023/01/02 06:03:31;;;;;;;676.78;626.45;;;21.90;75.90;;;;;;5086697;28;20219;-48
2023/01/02 06:06:02;;;;;;;576.58;546.63;;;22.00;75.80;;;;;;5089886;28;20221;-47
2023/01/02 06:08:29;;;;;;;580.83;549.30;;;22.00;75.60;;;;;;5086376;28;20570;-53
2023/01/02 06:10:55;;;;;;;607.35;572.95;;;22.20;76.40;;;;;;5086039;28;20191;-50
2023/01/02 06:13:22;;;;;;;677.60;634.60;;;21.90;75.20;;;;;;5090399;28;20206;-46
2023/01/02 06:15:51;;;;;;;522.78;496.88;;;22.00;75.40;;;;;;5086373;28;20198;-48
2023/01/02 06:18:17;;;;;;;565.75;536.75;;;22.00;75.40;;;;;;5082846;28;20675;-49
2023/01/02 06:20:44;;;;;;;572.67;542.47;;;22.00;75.60;;;;;;5089472;28;20222;-51
2023/01/02 06:23:11;;;;;;;591.88;553.65;;;22.00;75.70;;;;;;5088332;28;20205;-45
2023/01/02 06:25:37;;;;;;;355.02;340.95;;;21.90;75.70;;;;;;5085079;28;20223;-49
2023/01/02 06:28:04;;;;;;;374.40;359.48;;;21.90;75.80;;;;;;5088314;28;20191;-50
2023/01/02 06:30:31;;;;;;;335.33;322.05;;;21.90;75.90;;;;;;5087104;28;20937;-49
2023/01/02 06:32:59;;;;;;;290.98;280.15;;;21.90;75.90;;;;;;5087816;28;20195;-50
2023/01/02 06:35:26;;;;;;;300.88;289.83;;;21.90;75.80;;;;;;5091073;28;20190;-47
2023/01/02 06:37:52;;;;;;;310.25;298.35;;;21.90;75.70;;;;;;5073293;28;20559;-47
2023/01/02 06:40:19;;;;;;;280.17;269.90;;;21.90;75.60;;;;;;5079896;28;20191;-51
2023/01/02 06:42:46;;;;;;;326.05;313.70;;;22.00;75.60;;;;;;5089396;28;20205;-47
2023/01/02 06:45:13;;;;;;;341.67;328.23;;;22.00;75.40;;;;;;5085306;28;20531;-48
2023/01/02 06:47:39;;;;;;;362.38;347.92;;;22.10;75.40;;;;;;5086715;28;20199;-53
2023/01/02 06:50:08;;;;;;;412.05;394.60;;;22.10;75.30;;;;;;5088099;28;20187;-54
2023/01/02 06:52:35;;;;;;;401.05;384.50;;;22.00;75.20;;;;;;5088070;28;20206;-52
2023/01/02 06:55:02;;;;;;;491.52;467.98;;;22.10;75.30;;;;;;5087655;28;20199;-52
2023/01/02 06:57:30;;;;;;;618.85;585.85;;;22.00;75.30;;;;;;5087735;28;20198;-51
2023/01/02 06:59:57;;;;;;;659.97;622.28;;;22.00;75.30;;;;;;5084988;28;20606;-51
2023/01/02 07:02:23;;;;;;;630.60;594.80;;;22.00;76.20;;;;;;5081810;28;20191;-48
2023/01/02 07:04:50;;;;;;;636.53;599.47;;;22.00;75.50;;;;;;5088936;28;20204;-49
2023/01/02 07:07:18;;;;;;;629.97;593.80;;;22.00;75.60;;;;;;5090963;28;20575;-50
2023/01/02 07:09:45;;;;;;;725.90;670.15;;;21.90;75.60;;;;;;5082435;28;20199;-51
2023/01/02 07:12:11;;;;;;;727.75;666.58;;;21.90;75.60;;;;;;5084280;28;20650;-50
2023/01/02 07:14:38;;;;;;;662.15;619.55;;;21.90;75.70;;;;;;5083720;28;20195;-50
2023/01/02 07:17:05;;;;;;;652.17;608.85;;;22.10;75.90;;;;;;5078878;28;20191;-52
2023/01/02 07:19:31;;;;;;;670.40;627.05;;;22.00;75.80;;;;;;5083895;28;20222;-48
2023/01/02 07:21:58;;;;;;;698.97;650.13;;;21.90;75.60;;;;;;5090937;28;20551;-51
2023/01/02 07:24:26;;;;;;;665.25;625.72;;;22.00;75.70;;;;;;5088739;28;20198;-51
2023/01/02 07:26:53;;;;;;;681.35;633.47;;;22.00;75.60;;;;;;5089837;28;20690;-51
2023/01/02 07:29:19;;;;;;;680.38;635.55;;;22.00;75.60;;;;;;5090801;28;20199;-46
2023/01/02 07:31:46;;;;;;;674.03;630.78;;;22.00;75.40;;;;;;5086298;28;20193;-50
2023/01/02 07:34:13;;;;;;;659.35;617.28;;;22.00;75.40;;;;;;5093037;28;20199;-50
2023/01/02 07:36:39;;;;;;;694.15;645.75;;;22.00;75.30;;;;;;5092311;28;20694;-50
2023/01/02 07:39:06;;;;;;;683.42;639.05;;;22.10;75.40;;;;;;5089135;28;20191;-52
2023/01/02 07:41:34;;;;;;;676.22;632.25;;;22.10;75.40;;;;;;5088144;28;20198;-51
2023/01/02 07:44:01;;;;;;;692.53;644.47;;;22.10;75.40;;;;;;5092145;28;20191;-53
2023/01/02 07:46:28;;;;;;;709.40;662.08;;;22.20;75.60;;;;;;5083936;28;20215;-49
2023/01/02 07:48:55;;;;;;;690.83;646.10;;;22.10;75.60;;;;;;5084899;28;20207;-50
2023/01/02 07:51:21;;;;;;;668.22;626.28;;;22.00;75.60;;;;;;5090782;28;20206;-54
2023/01/02 07:53:48;;;;;;;686.45;642.40;;;22.00;75.70;;;;;;5088258;28;20210;-49
2023/01/02 07:56:15;;;;;;;732.40;671.15;;;22.00;75.70;;;;;;5091003;28;20198;-49
2023/01/02 07:58:43;;;;;;;695.72;647.08;;;22.00;75.70;;;;;;5090487;28;20196;-46
2023/01/02 08:01:12;;;;;;;682.33;636.58;;;22.10;75.80;;;;;;5087130;28;20199;-51
2023/01/02 08:03:39;;;;;;;705.08;657.20;;;22.10;75.70;;;;;;5086271;28;20616;-52
2023/01/02 08:06:08;;;;;;;683.83;634.55;;;22.00;76.30;;;;;;5093453;28;20222;-46
2023/01/02 08:08:35;;;;;;;683.85;639.42;;;22.10;75.50;;;;;;5090547;28;20207;-46
2023/01/02 08:11:05;;;;;;;659.60;619.88;;;22.00;75.30;;;;;;5091226;28;20195;-52
2023/01/02 08:13:31;;;;;;;664.33;623.42;;;22.10;75.30;;;;;;5093845;28;20192;-50
2023/01/02 08:16:04;;;;;;;683.47;640.28;;;22.20;75.30;;;;;;5082205;28;20614;-45
2023/01/02 08:18:31;;;;;;;701.72;652.33;;;22.20;75.30;;;;;;5083072;28;20199;-51
2023/01/02 08:20:57;;;;;;;679.80;636.33;;;22.10;75.10;;;;;;5087805;28;20219;-52
2023/01/02 08:23:24;;;;;;;676.10;631.95;;;22.20;75.20;;;;;;5090250;28;20195;-54
2023/01/02 08:25:51;;;;;;;659.63;618.83;;;22.20;75.20;;;;;;5091338;28;20195;-50
2023/01/02 08:28:18;;;;;;;653.58;614.22;;;22.20;75.20;;;;;;5092827;28;20199;-51
2023/01/02 08:30:44;;;;;;;665.72;623.17;;;22.20;75.20;;;;;;5086024;28;20204;-46
2023/01/02 08:33:12;;;;;;;707.78;660.80;;;22.20;75.20;;;;;;5087005;28;20281;-49
2023/01/02 08:35:39;;;;;;;724.08;671.47;;;22.30;75.20;;;;;;5090071;28;20285;-46
2023/01/02 08:38:06;;;;;;;725.78;663.97;;;22.20;75.50;;;;;;5088251;28;20199;-51
2023/01/02 08:40:32;;;;;;;696.10;644.42;;;22.30;76.30;;;;;;5086194;28;20210;-52
2023/01/02 08:42:59;;;;;;;682.67;639.63;;;22.20;76.50;;;;;;5089984;28;20678;-47
2023/01/02 08:45:26;;;;;;;667.20;626.55;;;22.20;77.20;;;;;;5083912;28;20905;-53
2023/01/02 08:47:53;;;;;;;614.58;578.35;;;22.10;77.50;;;;;;5083481;28;20220;-48
2023/01/02 08:50:21;;;;;;;602.60;569.08;;;22.10;78.80;;;;;;5091422;28;20193;-57
2023/01/02 08:52:48;;;;;;;543.33;514.03;;;22.00;79.80;;;;;;5092986;28;20260;-58
2023/01/02 08:55:14;;;;;;;633.65;596.65;;;22.10;79.60;;;;;;5089603;28;20192;-59
2023/01/02 08:57:41;;;;;;;598.28;565.38;;;22.10;79.80;;;;;;5089385;28;20199;-57
2023/01/02 09:00:09;;;;;;;632.58;595.58;;;22.00;79.80;;;;;;5088384;28;20565;-48
2023/01/02 09:02:36;;;;;;;551.17;522.25;;;22.00;80.20;;;;;;5090412;28;20206;-46
2023/01/02 09:05:03;;;;;;;421.87;403.87;;;22.00;80.50;;;;;;5088291;28;20984;-44
2023/01/02 09:07:31;;;;;;;416.30;398.58;;;22.00;81.10;;;;;;5092648;28;20485;-42
2023/01/02 09:09:59;;;;;;;465.10;443.80;;;22.00;81.10;;;;;;5088163;28;20191;-58
2023/01/02 09:12:25;;;;;;;634.30;597.92;;;21.90;81.10;;;;;;5088317;28;20563;-57
2023/01/02 09:14:52;;;;;;;686.90;643.45;;;21.90;81.40;;;;;;5087947;28;20207;-58
2023/01/02 09:17:19;;;;;;;678.47;636.75;;;21.90;81.40;;;;;;5086820;28;20202;-59
2023/01/02 09:19:45;;;;;;;652.85;613.42;;;21.90;81.10;;;;;;5086562;28;20223;-57
2023/01/02 09:22:12;;;;;;;595.67;563.80;;;21.90;81.00;;;;;;5091432;28;20215;-58
2023/01/02 09:24:41;;;;;;;627.40;590.05;;;22.00;80.90;;;;;;5083575;28;20201;-54
2023/01/02 09:27:07;;;;;;;645.45;604.95;;;22.00;80.80;;;;;;5087117;28;20686;-57
2023/01/02 09:29:34;;;;;;;689.53;641.58;;;22.00;80.60;;;;;;5082484;28;20192;-44
2023/01/02 09:32:01;;;;;;;671.33;625.13;;;22.00;80.20;;;;;;5085839;28;20190;-58
2023/01/02 09:34:28;;;;;;;672.45;628.60;;;22.10;80.20;;;;;;5082480;28;20571;-50
2023/01/02 09:36:54;;;;;;;678.33;632.35;;;22.10;80.00;;;;;;5091486;28;20196;-60
2023/01/02 09:39:21;;;;;;;719.30;665.13;;;22.10;79.70;;;;;;5086168;28;20202;-60
2023/01/02 09:41:52;;;;;;;743.33;685.20;;;22.20;79.70;;;;;;5088844;28;20563;-57
2023/01/02 09:44:24;;;;;;;709.15;648.90;;;22.20;79.50;;;;;;5085626;28;20563;-59
2023/01/02 09:46:56;;;;;;;723.95;664.55;;;22.20;79.30;;;;;;5087691;28;20223;-60
2023/01/02 09:49:27;;;;;;;715.90;656.47;;;22.30;79.30;;;;;;5086276;28;20198;-60
2023/01/02 09:51:54;;;;;;;733.40;672.85;;;22.20;79.10;;;;;;5078054;28;20196;-52
2023/01/02 09:54:24;;;;;;;698.70;641.47;;;22.30;79.10;;;;;;5086955;28;20296;-59
2023/01/02 09:57:04;;;;;;;699.65;652.20;;;22.30;79.00;;;;;;5088759;28;20196;-59
2023/01/02 09:59:36;;;;;;;707.78;655.60;;;22.30;79.10;;;;;;5086703;28;20249;-60
2023/01/02 10:02:15;;;;;;;735.38;676.63;;;22.20;79.20;;;;;;5083370;28;20605;-59
2023/01/02 10:05:01;;;;;;;687.45;643.47;;;22.30;79.50;;;;;;5085982;28;20198;-53
2023/01/02 10:07:37;;;;;;;667.13;624.30;;;22.30;79.30;;;;;;5086929;28;20230;-50
2023/01/02 10:10:09;;;;;;;624.00;588.67;;;22.20;79.30;;;;;;5085974;28;20199;-56
2023/01/02 10:12:43;;;;;;;678.35;636.10;;;22.20;79.30;;;;;;5081282;28;20325;-60
2023/01/02 10:15:15;;;;;;;674.28;629.92;;;22.20;79.30;;;;;;5086598;28;20202;-47
2023/01/02 10:17:46;;;;;;;637.22;601.30;;;22.20;79.30;;;;;;5087324;28;20203;-53
2023/01/02 10:20:19;;;;;;;706.60;660.70;;;22.20;79.40;;;;;;5083755;28;20211;-48
2023/01/02 10:22:49;;;;;;;698.42;650.15;;;22.20;79.50;;;;;;5088478;28;20199;-60
2023/01/02 10:25:22;;;;;;;690.67;641.70;;;22.10;79.40;;;;;;5088908;28;20541;-54
2023/01/02 10:27:54;;;;;;;684.75;637.38;;;22.10;79.40;;;;;;5086330;28;20312;-56
2023/01/02 10:30:23;;;;;;;691.03;644.33;;;22.10;79.50;;;;;;5087057;28;20196;-58
2023/01/02 10:32:57;;;;;;;631.22;594.53;;;22.10;79.60;;;;;;5087826;28;20211;-59
2023/01/02 10:35:35;;;;;;;622.80;588.35;;;22.10;79.60;;;;;;5091299;28;20189;-59
2023/01/02 10:38:02;;;;;;;580.17;549.58;;;22.10;79.60;;;;;;5087601;28;20200;-52
2023/01/02 10:40:31;;;;;;;577.67;547.83;;;22.00;79.60;;;;;;5087199;28;20674;-59
2023/01/02 10:43:00;;;;;;;626.75;592.28;;;22.00;79.60;;;;;;5086229;28;20193;-59
2023/01/02 10:45:28;;;;;;;701.70;655.55;;;22.00;79.70;;;;;;5078043;28;20229;-57
2023/01/02 10:47:54;;;;;;;685.60;638.92;;;22.00;79.70;;;;;;5088007;28;20210;-53
2023/01/02 10:50:24;;;;;;;720.60;666.95;;;22.00;79.70;;;;;;5089460;28;20203;-59
2023/01/02 10:52:52;;;;;;;697.72;650.60;;;22.00;79.70;;;;;;5088758;28;20237;-55
2023/01/02 10:55:30;;;;;;;699.35;651.88;;;22.00;79.70;;;;;;5088647;28;20192;-58
2023/01/02 10:58:04;;;;;;;722.95;668.67;;;21.90;79.60;;;;;;5084697;28;20226;-59
2023/01/02 11:00:33;;;;;;;710.75;655.70;;;21.90;79.60;;;;;;5088514;28;20574;-58
2023/01/02 11:03:07;;;;;;;726.13;673.17;;;22.00;79.70;;;;;;5087392;28;20543;-59
2023/01/02 11:05:43;;;;;;;718.85;665.33;;;22.00;79.70;;;;;;5094869;28;20191;-59
2023/01/02 11:08:13;;;;;;;666.40;621.13;;;22.00;79.60;;;;;;5095093;28;20219;-59
2023/01/02 11:10:41;;;;;;;691.55;641.60;;;22.00;79.60;;;;;;5090052;28;20256;-59
2023/01/02 11:13:12;;;;;;;693.60;642.75;;;21.90;79.40;;;;;;5087166;28;20192;-58
2023/01/02 11:15:56;;;;;;;689.97;641.83;;;22.00;79.50;;;;;;5089983;28;20303;-58
2023/01/02 11:18:26;;;;;;;713.35;660.08;;;21.90;79.30;;;;;;5087294;28;20206;-52
2023/01/02 11:20:55;;;;;;;710.42;655.85;;;22.00;79.30;;;;;;5094452;28;20223;-59
2023/01/02 11:23:25;;;;;;;700.60;648.90;;;22.00;79.30;;;;;;5091692;28;20196;-58
2023/01/02 11:25:53;;;;;;;694.58;644.65;;;22.00;79.30;;;;;;5094569;28;20198;-59
2023/01/02 11:28:25;;;;;;;698.88;651.92;;;21.90;79.40;;;;;;5089905;28;20215;-55
2023/01/02 11:30:59;;;;;;;688.90;642.08;;;22.00;80.20;;;;;;5084730;28;20200;-51
2023/01/02 11:33:29;;;;;;;914.20;861.00;;;22.10;80.10;;;;;;5076191;28;20485;-56
2023/01/02 11:35:57;;;;;;;745.78;696.72;;;22.30;79.60;;;;;;5081655;28;20651;-49
2023/01/02 11:38:27;;;;;;;715.95;669.55;;;22.50;78.90;;;;;;5088796;28;20199;-55
2023/01/02 11:40:57;;;;;;;675.17;630.08;;;22.60;78.50;;;;;;5098116;28;20200;-52
2023/01/02 11:43:48;;;;;;;669.00;624.80;;;22.70;78.40;;;;;;5089305;28;20199;-51
2023/01/02 11:46:23;;;;;;;679.55;635.28;;;22.80;78.50;;;;;;5088738;28;20195;-48
2023/01/02 11:48:53;;;;;;;672.05;628.10;;;22.90;78.30;;;;;;5085484;28;20246;-49
2023/01/02 11:51:22;;;;;;;678.65;632.30;;;23.00;78.90;;;;;;5092049;28;20197;-51
2023/01/02 11:53:52;;;;;;;718.50;668.50;;;23.20;77.80;;;;;;5087558;28;20199;-48
2023/01/02 11:56:24;;;;;;;674.95;628.28;;;23.20;77.60;;;;;;5090796;28;20195;-47
2023/01/02 11:58:58;;;;;;;646.50;607.03;;;23.20;77.50;;;;;;5085404;28;20207;-50
2023/01/02 12:01:32;;;;;;;670.05;627.15;;;23.20;77.40;;;;;;5091439;28;20190;-53
2023/01/02 12:03:59;;;;;;;685.47;639.33;;;23.20;77.30;;;;;;5087061;28;20192;-51
2023/01/02 12:06:38;;;;;;;713.88;659.90;;;23.30;77.10;;;;;;5093915;28;20196;-56
2023/01/02 12:09:10;;;;;;;730.28;666.22;;;23.40;77.10;;;;;;5088267;28;20223;-49
2023/01/02 12:11:50;;;;;;;715.85;658.35;;;23.50;76.60;;;;;;5081089;28;20229;-51
2023/01/02 12:14:21;;;;;;;730.38;672.97;;;23.50;76.50;;;;;;5083813;28;20702;-50
2023/01/02 12:16:55;;;;;;;709.30;655.00;;;23.60;76.30;;;;;;5084413;28;20196;-52
2023/01/02 12:19:39;;;;;;;692.70;644.35;;;23.60;76.00;;;;;;5088887;28;20208;-48
2023/01/02 12:22:20;;;;;;;686.03;641.83;;;23.70;75.70;;;;;;5074710;28;20202;-49
2023/01/02 12:25:08;;;;;;;647.53;608.60;;;23.80;75.60;;;;;;5089665;28;20556;-42